sensor_id;sensor_type;location;lat;lon;timestamp;P1;durP1;ratioP1;P2;durP2;ratioP2
1382;SDS011;685;47.196;11.880;2023-09-08T00:01:28;6.47;;;5.03;;
1382;SDS011;685;47.196;11.880;2023-09-08T00:03:57;6.87;;;4.80;;
1382;SDS011;685;47.196;11.880;2023-09-08T00:06:24;5.10;;;4.60;;
1382;SDS011;685;47.196;11.880;2023-09-08T00:08:52;6.90;;;4.40;;
1382;SDS011;685;47.196;11.880;2023-09-08T00:11:19;6.20;;;4.70;;
1382;SDS011;685;47.196;11.880;2023-09-08T00:13:46;5.60;;;4.63;;
1382;SDS011;685;47.196;11.880;2023-09-08T00:16:15;4.83;;;4.33;;
1382;SDS011;685;47.196;11.880;2023-09-08T00:18:42;5.87;;;4.50;;
1382;SDS011;685;47.196;11.880;2023-09-08T00:21:11;8.93;;;4.90;;
1382;SDS011;685;47.196;11.880;2023-09-08T00:23:38;7.63;;;4.80;;
1382;SDS011;685;47.196;11.880;2023-09-08T00:26:05;7.00;;;4.17;;
1382;SDS011;685;47.196;11.880;2023-09-08T00:28:32;5.97;;;4.07;;
1382;SDS011;685;47.196;11.880;2023-09-08T00:31:00;5.00;;;4.13;;
1382;SDS011;685;47.196;11.880;2023-09-08T00:33:27;5.73;;;4.00;;
1382;SDS011;685;47.196;11.880;2023-09-08T00:35:54;6.10;;;4.53;;
1382;SDS011;685;47.196;11.880;2023-09-08T00:38:23;4.90;;;4.20;;
1382;SDS011;685;47.196;11.880;2023-09-08T00:40:51;5.40;;;4.20;;
1382;SDS011;685;47.196;11.880;2023-09-08T00:43:18;5.93;;;5.33;;
1382;SDS011;685;47.196;11.880;2023-09-08T00:45:46;5.27;;;4.77;;
1382;SDS011;685;47.196;11.880;2023-09-08T00:48:13;4.77;;;4.30;;
1382;SDS011;685;47.196;11.880;2023-09-08T00:50:40;5.23;;;4.10;;
1382;SDS011;685;47.196;11.880;2023-09-08T00:53:08;6.80;;;4.10;;
1382;SDS011;685;47.196;11.880;2023-09-08T00:55:36;6.30;;;4.30;;
1382;SDS011;685;47.196;11.880;2023-09-08T00:58:06;4.73;;;4.20;;
1382;SDS011;685;47.196;11.880;2023-09-08T01:00:33;7.23;;;4.63;;
1382;SDS011;685;47.196;11.880;2023-09-08T01:03:00;7.20;;;4.87;;
1382;SDS011;685;47.196;11.880;2023-09-08T01:05:28;6.00;;;4.70;;
1382;SDS011;685;47.196;11.880;2023-09-08T01:07:56;7.17;;;4.77;;
1382;SDS011;685;47.196;11.880;2023-09-08T01:10:23;5.77;;;4.53;;
1382;SDS011;685;47.196;11.880;2023-09-08T01:12:52;6.83;;;4.27;;
1382;SDS011;685;47.196;11.880;2023-09-08T01:15:19;6.23;;;4.83;;
1382;SDS011;685;47.196;11.880;2023-09-08T01:17:46;7.60;;;4.53;;
1382;SDS011;685;47.196;11.880;2023-09-08T01:20:15;4.87;;;4.37;;
1382;SDS011;685;47.196;11.880;2023-09-08T01:22:51;6.60;;;4.20;;
1382;SDS011;685;47.196;11.880;2023-09-08T01:25:24;5.80;;;4.30;;
1382;SDS011;685;47.196;11.880;2023-09-08T01:27:53;5.43;;;4.60;;
1382;SDS011;685;47.196;11.880;2023-09-08T01:30:21;6.10;;;4.30;;
1382;SDS011;685;47.196;11.880;2023-09-08T01:32:50;6.07;;;4.43;;
1382;SDS011;685;47.196;11.880;2023-09-08T01:35:17;6.33;;;5.00;;
1382;SDS011;685;47.196;11.880;2023-09-08T01:37:45;5.20;;;4.60;;
1382;SDS011;685;47.196;11.880;2023-09-08T01:40:12;4.43;;;3.90;;
1382;SDS011;685;47.196;11.880;2023-09-08T01:42:41;6.20;;;4.30;;
1382;SDS011;685;47.196;11.880;2023-09-08T01:45:08;6.33;;;4.40;;
1382;SDS011;685;47.196;11.880;2023-09-08T01:47:36;6.13;;;4.40;;
1382;SDS011;685;47.196;11.880;2023-09-08T01:50:03;4.97;;;4.37;;
1382;SDS011;685;47.196;11.880;2023-09-08T01:52:31;5.40;;;4.23;;
1382;SDS011;685;47.196;11.880;2023-09-08T01:54:58;6.37;;;4.83;;
1382;SDS011;685;47.196;11.880;2023-09-08T01:57:25;5.30;;;4.07;;
1382;SDS011;685;47.196;11.880;2023-09-08T01:59:54;9.27;;;4.43;;
1382;SDS011;685;47.196;11.880;2023-09-08T02:02:21;5.60;;;4.27;;
1382;SDS011;685;47.196;11.880;2023-09-08T02:04:48;5.03;;;3.83;;
1382;SDS011;685;47.196;11.880;2023-09-08T02:07:15;5.83;;;4.80;;
1382;SDS011;685;47.196;11.880;2023-09-08T02:09:43;6.07;;;4.67;;
1382;SDS011;685;47.196;11.880;2023-09-08T02:12:10;7.43;;;4.20;;
1382;SDS011;685;47.196;11.880;2023-09-08T02:14:37;5.00;;;4.50;;
1382;SDS011;685;47.196;11.880;2023-09-08T02:17:06;7.20;;;4.30;;
1382;SDS011;685;47.196;11.880;2023-09-08T02:19:33;5.47;;;4.50;;
1382;SDS011;685;47.196;11.880;2023-09-08T02:22:00;5.53;;;4.00;;
1382;SDS011;685;47.196;11.880;2023-09-08T02:24:27;5.70;;;4.30;;
1382;SDS011;685;47.196;11.880;2023-09-08T02:26:55;7.17;;;5.10;;
1382;SDS011;685;47.196;11.880;2023-09-08T02:29:22;5.07;;;4.13;;
1382;SDS011;685;47.196;11.880;2023-09-08T02:31:49;5.40;;;4.30;;
1382;SDS011;685;47.196;11.880;2023-09-08T02:34:18;5.70;;;4.20;;
1382;SDS011;685;47.196;11.880;2023-09-08T02:36:45;6.13;;;4.40;;
1382;SDS011;685;47.196;11.880;2023-09-08T02:39:16;5.10;;;4.27;;
1382;SDS011;685;47.196;11.880;2023-09-08T02:41:43;5.70;;;4.30;;
1382;SDS011;685;47.196;11.880;2023-09-08T02:44:10;6.27;;;4.90;;
1382;SDS011;685;47.196;11.880;2023-09-08T02:46:37;7.53;;;4.33;;
1382;SDS011;685;47.196;11.880;2023-09-08T02:49:05;5.13;;;4.63;;
1382;SDS011;685;47.196;11.880;2023-09-08T02:51:34;5.10;;;4.23;;
1382;SDS011;685;47.196;11.880;2023-09-08T02:54:01;8.80;;;4.30;;
1382;SDS011;685;47.196;11.880;2023-09-08T02:56:28;4.93;;;4.13;;
1382;SDS011;685;47.196;11.880;2023-09-08T02:58:55;4.70;;;4.23;;
1382;SDS011;685;47.196;11.880;2023-09-08T03:01:23;5.17;;;4.30;;
1382;SDS011;685;47.196;11.880;2023-09-08T03:03:50;7.23;;;5.07;;
1382;SDS011;685;47.196;11.880;2023-09-08T03:06:18;6.00;;;4.37;;
1382;SDS011;685;47.196;11.880;2023-09-08T03:08:46;6.17;;;4.10;;
1382;SDS011;685;47.196;11.880;2023-09-08T03:11:14;7.47;;;4.77;;
1382;SDS011;685;47.196;11.880;2023-09-08T03:13:41;4.77;;;4.27;;
1382;SDS011;685;47.196;11.880;2023-09-08T03:16:08;4.13;;;3.40;;
1382;SDS011;685;47.196;11.880;2023-09-08T03:18:36;7.90;;;4.97;;
1382;SDS011;685;47.196;11.880;2023-09-08T03:21:04;5.20;;;4.03;;
1382;SDS011;685;47.196;11.880;2023-09-08T03:23:35;6.10;;;4.63;;
1382;SDS011;685;47.196;11.880;2023-09-08T03:26:04;5.87;;;3.97;;
1382;SDS011;685;47.196;11.880;2023-09-08T03:28:32;5.53;;;3.90;;
1382;SDS011;685;47.196;11.880;2023-09-08T03:31:00;5.43;;;4.00;;
1382;SDS011;685;47.196;11.880;2023-09-08T03:33:27;5.17;;;4.10;;
1382;SDS011;685;47.196;11.880;2023-09-08T03:35:54;5.13;;;4.63;;
1382;SDS011;685;47.196;11.880;2023-09-08T03:38:22;6.03;;;4.30;;
1382;SDS011;685;47.196;11.880;2023-09-08T03:40:49;5.13;;;4.30;;
1382;SDS011;685;47.196;11.880;2023-09-08T03:43:18;7.23;;;3.80;;
1382;SDS011;685;47.196;11.880;2023-09-08T03:45:45;5.80;;;3.97;;
1382;SDS011;685;47.196;11.880;2023-09-08T03:48:13;5.40;;;4.70;;
1382;SDS011;685;47.196;11.880;2023-09-08T03:50:40;5.00;;;4.43;;
1382;SDS011;685;47.196;11.880;2023-09-08T03:53:10;7.20;;;4.60;;
1382;SDS011;685;47.196;11.880;2023-09-08T03:55:37;5.17;;;3.90;;
1382;SDS011;685;47.196;11.880;2023-09-08T03:58:05;5.40;;;3.87;;
1382;SDS011;685;47.196;11.880;2023-09-08T04:00:33;4.93;;;3.83;;
1382;SDS011;685;47.196;11.880;2023-09-08T04:03:02;5.70;;;4.47;;
1382;SDS011;685;47.196;11.880;2023-09-08T04:05:29;6.10;;;3.90;;
1382;SDS011;685;47.196;11.880;2023-09-08T04:07:56;5.10;;;4.07;;
1382;SDS011;685;47.196;11.880;2023-09-08T04:10:24;4.43;;;3.70;;
1382;SDS011;685;47.196;11.880;2023-09-08T04:12:51;5.20;;;4.20;;
1382;SDS011;685;47.196;11.880;2023-09-08T04:15:18;4.87;;;4.33;;
1382;SDS011;685;47.196;11.880;2023-09-08T04:17:47;5.03;;;3.77;;
1382;SDS011;685;47.196;11.880;2023-09-08T04:20:14;4.83;;;3.63;;
1382;SDS011;685;47.196;11.880;2023-09-08T04:22:42;5.93;;;4.60;;
1382;SDS011;685;47.196;11.880;2023-09-08T04:25:09;6.03;;;4.60;;
1382;SDS011;685;47.196;11.880;2023-09-08T04:27:36;5.27;;;3.90;;
1382;SDS011;685;47.196;11.880;2023-09-08T04:30:04;5.17;;;3.93;;
1382;SDS011;685;47.196;11.880;2023-09-08T04:32:31;5.10;;;4.20;;
1382;SDS011;685;47.196;11.880;2023-09-08T04:35:00;5.10;;;3.83;;
1382;SDS011;685;47.196;11.880;2023-09-08T04:37:27;4.73;;;3.60;;
1382;SDS011;685;47.196;11.880;2023-09-08T04:39:55;6.20;;;4.60;;
1382;SDS011;685;47.196;11.880;2023-09-08T04:42:22;5.67;;;4.27;;
1382;SDS011;685;47.196;11.880;2023-09-08T04:44:50;5.10;;;4.03;;
1382;SDS011;685;47.196;11.880;2023-09-08T04:47:18;6.53;;;4.10;;
1382;SDS011;685;47.196;11.880;2023-09-08T04:49:45;5.23;;;4.10;;
1382;SDS011;685;47.196;11.880;2023-09-08T04:52:14;5.80;;;4.60;;
1382;SDS011;685;47.196;11.880;2023-09-08T04:54:41;5.37;;;4.17;;
1382;SDS011;685;47.196;11.880;2023-09-08T04:57:08;5.13;;;3.93;;
1382;SDS011;685;47.196;11.880;2023-09-08T04:59:36;5.63;;;4.20;;
1382;SDS011;685;47.196;11.880;2023-09-08T05:02:05;4.80;;;4.20;;
1382;SDS011;685;47.196;11.880;2023-09-08T05:04:32;5.73;;;3.80;;
1382;SDS011;685;47.196;11.880;2023-09-08T05:06:59;5.10;;;3.87;;
1382;SDS011;685;47.196;11.880;2023-09-08T05:09:28;6.27;;;4.50;;
1382;SDS011;685;47.196;11.880;2023-09-08T05:11:55;5.20;;;4.43;;
1382;SDS011;685;47.196;11.880;2023-09-08T05:14:24;5.23;;;4.10;;
1382;SDS011;685;47.196;11.880;2023-09-08T05:16:51;6.77;;;4.20;;
1382;SDS011;685;47.196;11.880;2023-09-08T05:19:21;7.27;;;4.53;;
1382;SDS011;685;47.196;11.880;2023-09-08T05:21:49;5.03;;;3.73;;
1382;SDS011;685;47.196;11.880;2023-09-08T05:24:16;4.63;;;4.07;;
1382;SDS011;685;47.196;11.880;2023-09-08T05:26:47;7.83;;;5.03;;
1382;SDS011;685;47.196;11.880;2023-09-08T05:29:14;6.13;;;4.00;;
1382;SDS011;685;47.196;11.880;2023-09-08T05:31:41;4.90;;;4.23;;
1382;SDS011;685;47.196;11.880;2023-09-08T05:34:09;5.60;;;4.57;;
1382;SDS011;685;47.196;11.880;2023-09-08T05:36:36;5.80;;;4.90;;
1382;SDS011;685;47.196;11.880;2023-09-08T05:39:05;5.23;;;4.50;;
1382;SDS011;685;47.196;11.880;2023-09-08T05:41:32;4.77;;;4.27;;
1382;SDS011;685;47.196;11.880;2023-09-08T05:44:01;5.30;;;4.20;;
1382;SDS011;685;47.196;11.880;2023-09-08T05:46:28;5.20;;;3.57;;
1382;SDS011;685;47.196;11.880;2023-09-08T05:48:56;5.57;;;4.43;;
1382;SDS011;685;47.196;11.880;2023-09-08T05:51:23;5.10;;;4.17;;
1382;SDS011;685;47.196;11.880;2023-09-08T05:53:50;4.83;;;4.33;;
1382;SDS011;685;47.196;11.880;2023-09-08T05:56:18;5.10;;;4.13;;
1382;SDS011;685;47.196;11.880;2023-09-08T05:58:46;4.57;;;3.90;;
1382;SDS011;685;47.196;11.880;2023-09-08T06:01:14;4.33;;;3.83;;
1382;SDS011;685;47.196;11.880;2023-09-08T06:03:42;8.83;;;5.17;;
1382;SDS011;685;47.196;11.880;2023-09-08T06:06:10;7.33;;;4.50;;
1382;SDS011;685;47.196;11.880;2023-09-08T06:08:37;8.57;;;4.53;;
1382;SDS011;685;47.196;11.880;2023-09-08T06:11:04;6.53;;;5.10;;
1382;SDS011;685;47.196;11.880;2023-09-08T06:13:31;5.77;;;4.60;;
1382;SDS011;685;47.196;11.880;2023-09-08T06:15:58;6.13;;;5.53;;
1382;SDS011;685;47.196;11.880;2023-09-08T06:18:27;4.73;;;4.23;;
1382;SDS011;685;47.196;11.880;2023-09-08T06:20:55;7.10;;;4.70;;
1382;SDS011;685;47.196;11.880;2023-09-08T06:23:23;6.13;;;3.97;;
1382;SDS011;685;47.196;11.880;2023-09-08T06:25:50;4.60;;;3.70;;
1382;SDS011;685;47.196;11.880;2023-09-08T06:28:17;6.33;;;4.77;;
1382;SDS011;685;47.196;11.880;2023-09-08T06:30:44;5.97;;;4.30;;
1382;SDS011;685;47.196;11.880;2023-09-08T06:33:12;5.47;;;4.33;;
1382;SDS011;685;47.196;11.880;2023-09-08T06:35:40;5.70;;;4.53;;
1382;SDS011;685;47.196;11.880;2023-09-08T06:38:08;5.60;;;4.53;;
1382;SDS011;685;47.196;11.880;2023-09-08T06:40:35;6.73;;;4.63;;
1382;SDS011;685;47.196;11.880;2023-09-08T06:43:02;6.07;;;4.90;;
1382;SDS011;685;47.196;11.880;2023-09-08T06:45:29;6.80;;;5.10;;
1382;SDS011;685;47.196;11.880;2023-09-08T06:47:56;6.30;;;5.00;;
1382;SDS011;685;47.196;11.880;2023-09-08T06:50:25;4.33;;;3.90;;
1382;SDS011;685;47.196;11.880;2023-09-08T06:52:55;6.40;;;5.27;;
1382;SDS011;685;47.196;11.880;2023-09-08T06:55:22;5.00;;;4.50;;
1382;SDS011;685;47.196;11.880;2023-09-08T06:57:49;5.23;;;4.10;;
1382;SDS011;685;47.196;11.880;2023-09-08T07:00:17;9.63;;;4.70;;
1382;SDS011;685;47.196;11.880;2023-09-08T07:02:45;5.37;;;4.50;;
1382;SDS011;685;47.196;11.880;2023-09-08T07:05:14;6.37;;;4.70;;
1382;SDS011;685;47.196;11.880;2023-09-08T07:07:41;5.80;;;4.40;;
1382;SDS011;685;47.196;11.880;2023-09-08T07:10:11;7.07;;;5.20;;
1382;SDS011;685;47.196;11.880;2023-09-08T07:12:38;5.70;;;4.97;;
1382;SDS011;685;47.196;11.880;2023-09-08T07:15:06;5.60;;;4.73;;
1382;SDS011;685;47.196;11.880;2023-09-08T07:17:33;5.30;;;4.67;;
1382;SDS011;685;47.196;11.880;2023-09-08T07:20:00;5.00;;;3.87;;
1382;SDS011;685;47.196;11.880;2023-09-08T07:22:28;6.43;;;5.43;;
1382;SDS011;685;47.196;11.880;2023-09-08T07:24:55;6.03;;;4.70;;
1382;SDS011;685;47.196;11.880;2023-09-08T07:27:24;7.40;;;4.60;;
1382;SDS011;685;47.196;11.880;2023-09-08T07:29:51;5.77;;;4.47;;
1382;SDS011;685;47.196;11.880;2023-09-08T07:32:18;7.77;;;5.60;;
1382;SDS011;685;47.196;11.880;2023-09-08T07:34:47;6.97;;;5.73;;
1382;SDS011;685;47.196;11.880;2023-09-08T07:37:19;5.50;;;4.20;;
1382;SDS011;685;47.196;11.880;2023-09-08T07:39:47;5.30;;;4.17;;
1382;SDS011;685;47.196;11.880;2023-09-08T07:42:14;5.33;;;4.63;;
1382;SDS011;685;47.196;11.880;2023-09-08T07:44:43;7.50;;;4.90;;
1382;SDS011;685;47.196;11.880;2023-09-08T07:47:11;5.60;;;5.00;;
1382;SDS011;685;47.196;11.880;2023-09-08T07:49:38;6.80;;;4.70;;
1382;SDS011;685;47.196;11.880;2023-09-08T07:52:05;8.97;;;5.30;;
1382;SDS011;685;47.196;11.880;2023-09-08T07:54:32;5.77;;;4.83;;
1382;SDS011;685;47.196;11.880;2023-09-08T07:57:00;6.70;;;5.03;;
1382;SDS011;685;47.196;11.880;2023-09-08T07:59:27;6.07;;;5.07;;
1382;SDS011;685;47.196;11.880;2023-09-08T08:01:55;8.47;;;6.10;;
1382;SDS011;685;47.196;11.880;2023-09-08T08:04:23;7.20;;;4.50;;
1382;SDS011;685;47.196;11.880;2023-09-08T08:06:50;6.47;;;5.13;;
1382;SDS011;685;47.196;11.880;2023-09-08T08:09:17;7.03;;;5.10;;
1382;SDS011;685;47.196;11.880;2023-09-08T08:11:44;6.10;;;4.67;;
1382;SDS011;685;47.196;11.880;2023-09-08T08:14:12;6.63;;;5.07;;
1382;SDS011;685;47.196;11.880;2023-09-08T08:16:39;6.00;;;4.80;;
1382;SDS011;685;47.196;11.880;2023-09-08T08:19:07;5.90;;;5.17;;
1382;SDS011;685;47.196;11.880;2023-09-08T08:21:35;5.73;;;4.97;;
1382;SDS011;685;47.196;11.880;2023-09-08T08:24:03;5.83;;;5.17;;
1382;SDS011;685;47.196;11.880;2023-09-08T08:26:30;6.70;;;5.37;;
1382;SDS011;685;47.196;11.880;2023-09-08T08:28:58;5.73;;;5.17;;
1382;SDS011;685;47.196;11.880;2023-09-08T08:31:25;5.57;;;4.57;;
1382;SDS011;685;47.196;11.880;2023-09-08T08:33:53;6.37;;;5.20;;
1382;SDS011;685;47.196;11.880;2023-09-08T08:36:21;6.63;;;5.50;;
1382;SDS011;685;47.196;11.880;2023-09-08T08:38:49;7.20;;;5.50;;
1382;SDS011;685;47.196;11.880;2023-09-08T08:41:16;15.10;;;5.70;;
1382;SDS011;685;47.196;11.880;2023-09-08T08:43:43;5.77;;;5.03;;
1382;SDS011;685;47.196;11.880;2023-09-08T08:46:12;6.17;;;5.10;;
1382;SDS011;685;47.196;11.880;2023-09-08T08:48:40;9.00;;;4.93;;
1382;SDS011;685;47.196;11.880;2023-09-08T08:51:08;7.87;;;5.63;;
1382;SDS011;685;47.196;11.880;2023-09-08T08:53:36;7.67;;;4.70;;
1382;SDS011;685;47.196;11.880;2023-09-08T08:56:04;5.53;;;4.80;;
1382;SDS011;685;47.196;11.880;2023-09-08T08:58:33;11.60;;;6.40;;
1382;SDS011;685;47.196;11.880;2023-09-08T09:01:02;15.90;;;6.80;;
1382;SDS011;685;47.196;11.880;2023-09-08T09:03:30;6.20;;;4.90;;
1382;SDS011;685;47.196;11.880;2023-09-08T09:05:59;7.07;;;5.10;;
1382;SDS011;685;47.196;11.880;2023-09-08T09:08:26;9.10;;;5.30;;
1382;SDS011;685;47.196;11.880;2023-09-08T09:10:56;5.93;;;5.13;;
1382;SDS011;685;47.196;11.880;2023-09-08T09:13:23;9.80;;;5.30;;
1382;SDS011;685;47.196;11.880;2023-09-08T09:15:50;6.60;;;5.40;;
1382;SDS011;685;47.196;11.880;2023-09-08T09:18:18;5.73;;;4.80;;
1382;SDS011;685;47.196;11.880;2023-09-08T09:20:52;5.50;;;4.40;;
1382;SDS011;685;47.196;11.880;2023-09-08T09:23:26;6.57;;;5.00;;
1382;SDS011;685;47.196;11.880;2023-09-08T09:25:55;7.80;;;5.23;;
1382;SDS011;685;47.196;11.880;2023-09-08T09:28:22;7.57;;;5.40;;
1382;SDS011;685;47.196;11.880;2023-09-08T09:30:50;6.53;;;5.07;;
1382;SDS011;685;47.196;11.880;2023-09-08T09:33:19;10.40;;;5.60;;
1382;SDS011;685;47.196;11.880;2023-09-08T09:35:47;7.20;;;4.80;;
1382;SDS011;685;47.196;11.880;2023-09-08T09:38:15;6.40;;;5.67;;
1382;SDS011;685;47.196;11.880;2023-09-08T09:40:44;6.23;;;5.40;;
1382;SDS011;685;47.196;11.880;2023-09-08T09:43:12;5.23;;;4.70;;
1382;SDS011;685;47.196;11.880;2023-09-08T09:45:40;4.93;;;4.43;;
1382;SDS011;685;47.196;11.880;2023-09-08T09:48:08;6.30;;;5.70;;
1382;SDS011;685;47.196;11.880;2023-09-08T09:50:36;6.80;;;5.03;;
1382;SDS011;685;47.196;11.880;2023-09-08T09:53:07;6.60;;;5.17;;
1382;SDS011;685;47.196;11.880;2023-09-08T09:55:36;7.20;;;5.57;;
1382;SDS011;685;47.196;11.880;2023-09-08T09:58:03;8.20;;;5.93;;
1382;SDS011;685;47.196;11.880;2023-09-08T10:00:33;6.43;;;5.60;;
1382;SDS011;685;47.196;11.880;2023-09-08T10:03:01;5.50;;;4.93;;
1382;SDS011;685;47.196;11.880;2023-09-08T10:05:28;5.47;;;4.67;;
1382;SDS011;685;47.196;11.880;2023-09-08T10:07:56;6.73;;;5.47;;
1382;SDS011;685;47.196;11.880;2023-09-08T10:10:23;5.90;;;4.97;;
1382;SDS011;685;47.196;11.880;2023-09-08T10:12:51;6.07;;;4.97;;
1382;SDS011;685;47.196;11.880;2023-09-08T10:15:19;6.60;;;5.50;;
1382;SDS011;685;47.196;11.880;2023-09-08T10:17:51;5.03;;;4.27;;
1382;SDS011;685;47.196;11.880;2023-09-08T10:20:19;6.00;;;4.77;;
1382;SDS011;685;47.196;11.880;2023-09-08T10:22:50;6.50;;;5.00;;
1382;SDS011;685;47.196;11.880;2023-09-08T10:25:20;5.30;;;4.43;;
1382;SDS011;685;47.196;11.880;2023-09-08T10:27:47;5.83;;;5.20;;
1382;SDS011;685;47.196;11.880;2023-09-08T10:30:15;7.40;;;5.40;;
1382;SDS011;685;47.196;11.880;2023-09-08T10:32:42;6.30;;;5.30;;
1382;SDS011;685;47.196;11.880;2023-09-08T10:35:11;6.10;;;4.73;;
1382;SDS011;685;47.196;11.880;2023-09-08T10:37:39;5.90;;;4.80;;
1382;SDS011;685;47.196;11.880;2023-09-08T10:40:22;5.53;;;4.70;;
1382;SDS011;685;47.196;11.880;2023-09-08T10:42:58;6.07;;;5.47;;
1382;SDS011;685;47.196;11.880;2023-09-08T10:45:32;6.07;;;5.47;;
1382;SDS011;685;47.196;11.880;2023-09-08T10:47:59;5.90;;;5.17;;
1382;SDS011;685;47.196;11.880;2023-09-08T10:50:33;6.37;;;4.90;;
1382;SDS011;685;47.196;11.880;2023-09-08T10:53:06;5.73;;;5.20;;
1382;SDS011;685;47.196;11.880;2023-09-08T10:55:36;6.50;;;5.40;;
1382;SDS011;685;47.196;11.880;2023-09-08T10:58:03;6.40;;;5.80;;
1382;SDS011;685;47.196;11.880;2023-09-08T11:00:42;5.40;;;4.90;;
1382;SDS011;685;47.196;11.880;2023-09-08T11:03:09;5.90;;;5.13;;
1382;SDS011;685;47.196;11.880;2023-09-08T11:05:38;5.90;;;5.30;;
1382;SDS011;685;47.196;11.880;2023-09-08T11:08:05;6.03;;;5.33;;
1382;SDS011;685;47.196;11.880;2023-09-08T11:10:32;6.03;;;5.43;;
1382;SDS011;685;47.196;11.880;2023-09-08T11:13:00;7.43;;;6.20;;
1382;SDS011;685;47.196;11.880;2023-09-08T11:15:28;7.07;;;5.90;;
1382;SDS011;685;47.196;11.880;2023-09-08T11:17:56;8.20;;;5.70;;
1382;SDS011;685;47.196;11.880;2023-09-08T11:20:26;6.30;;;5.70;;
1382;SDS011;685;47.196;11.880;2023-09-08T11:22:55;7.20;;;5.20;;
1382;SDS011;685;47.196;11.880;2023-09-08T11:25:23;6.47;;;5.50;;
1382;SDS011;685;47.196;11.880;2023-09-08T11:27:50;5.80;;;5.20;;
1382;SDS011;685;47.196;11.880;2023-09-08T11:30:17;6.40;;;4.83;;
1382;SDS011;685;47.196;11.880;2023-09-08T11:32:44;4.87;;;4.37;;
1382;SDS011;685;47.196;11.880;2023-09-08T11:35:12;5.63;;;5.13;;
1382;SDS011;685;47.196;11.880;2023-09-08T11:37:41;6.03;;;5.30;;
1382;SDS011;685;47.196;11.880;2023-09-08T11:40:10;6.03;;;5.30;;
1382;SDS011;685;47.196;11.880;2023-09-08T11:42:38;6.57;;;5.23;;
1382;SDS011;685;47.196;11.880;2023-09-08T11:45:09;5.90;;;5.03;;
1382;SDS011;685;47.196;11.880;2023-09-08T11:47:39;5.23;;;4.73;;
1382;SDS011;685;47.196;11.880;2023-09-08T11:50:07;5.33;;;4.83;;
1382;SDS011;685;47.196;11.880;2023-09-08T11:52:36;5.37;;;4.83;;
1382;SDS011;685;47.196;11.880;2023-09-08T11:55:04;5.80;;;5.00;;
1382;SDS011;685;47.196;11.880;2023-09-08T11:57:33;6.07;;;5.30;;
1382;SDS011;685;47.196;11.880;2023-09-08T12:00:00;5.70;;;4.90;;
1382;SDS011;685;47.196;11.880;2023-09-08T12:02:33;5.57;;;4.97;;
1382;SDS011;685;47.196;11.880;2023-09-08T12:05:01;6.43;;;4.97;;
1382;SDS011;685;47.196;11.880;2023-09-08T12:07:28;5.90;;;4.83;;
1382;SDS011;685;47.196;11.880;2023-09-08T12:09:56;5.93;;;4.87;;
1382;SDS011;685;47.196;11.880;2023-09-08T12:12:24;6.93;;;6.27;;
1382;SDS011;685;47.196;11.880;2023-09-08T12:14:52;6.07;;;5.33;;
1382;SDS011;685;47.196;11.880;2023-09-08T12:17:20;5.43;;;4.93;;
1382;SDS011;685;47.196;11.880;2023-09-08T12:19:50;7.10;;;5.30;;
1382;SDS011;685;47.196;11.880;2023-09-08T12:22:18;6.57;;;5.73;;
1382;SDS011;685;47.196;11.880;2023-09-08T12:24:48;6.30;;;5.63;;
1382;SDS011;685;47.196;11.880;2023-09-08T12:27:15;7.30;;;6.23;;
1382;SDS011;685;47.196;11.880;2023-09-08T12:29:52;6.10;;;5.50;;
1382;SDS011;685;47.196;11.880;2023-09-08T12:32:20;6.17;;;5.23;;
1382;SDS011;685;47.196;11.880;2023-09-08T12:34:47;6.90;;;5.87;;
1382;SDS011;685;47.196;11.880;2023-09-08T12:37:14;7.10;;;5.97;;
1382;SDS011;685;47.196;11.880;2023-09-08T12:39:46;7.70;;;6.27;;
1382;SDS011;685;47.196;11.880;2023-09-08T12:42:13;8.23;;;5.80;;
1382;SDS011;685;47.196;11.880;2023-09-08T12:44:40;7.07;;;6.37;;
1382;SDS011;685;47.196;11.880;2023-09-08T12:47:10;6.13;;;5.53;;
1382;SDS011;685;47.196;11.880;2023-09-08T12:49:38;8.80;;;6.60;;
1382;SDS011;685;47.196;11.880;2023-09-08T12:52:06;6.20;;;5.60;;
1382;SDS011;685;47.196;11.880;2023-09-08T12:54:34;7.33;;;5.97;;
1382;SDS011;685;47.196;11.880;2023-09-08T12:57:01;10.43;;;6.53;;
1382;SDS011;685;47.196;11.880;2023-09-08T12:59:29;7.27;;;6.57;;
1382;SDS011;685;47.196;11.880;2023-09-08T13:01:56;6.40;;;5.70;;
1382;SDS011;685;47.196;11.880;2023-09-08T13:04:25;6.97;;;6.00;;
1382;SDS011;685;47.196;11.880;2023-09-08T13:06:52;7.20;;;6.50;;
1382;SDS011;685;47.196;11.880;2023-09-08T13:09:19;7.13;;;6.43;;
1382;SDS011;685;47.196;11.880;2023-09-08T13:11:47;7.13;;;6.43;;
1382;SDS011;685;47.196;11.880;2023-09-08T13:14:16;7.70;;;6.90;;
1382;SDS011;685;47.196;11.880;2023-09-08T13:16:43;6.97;;;6.27;;
1382;SDS011;685;47.196;11.880;2023-09-08T13:19:11;8.47;;;6.50;;
1382;SDS011;685;47.196;11.880;2023-09-08T13:21:39;7.60;;;6.80;;
1382;SDS011;685;47.196;11.880;2023-09-08T13:24:07;8.03;;;6.90;;
1382;SDS011;685;47.196;11.880;2023-09-08T13:26:34;8.13;;;6.83;;
1382;SDS011;685;47.196;11.880;2023-09-08T13:29:01;6.73;;;6.13;;
1382;SDS011;685;47.196;11.880;2023-09-08T13:31:29;7.27;;;6.57;;
1382;SDS011;685;47.196;11.880;2023-09-08T13:33:56;7.23;;;6.53;;
1382;SDS011;685;47.196;11.880;2023-09-08T13:36:23;10.60;;;7.80;;
1382;SDS011;685;47.196;11.880;2023-09-08T13:38:52;7.77;;;6.13;;
1382;SDS011;685;47.196;11.880;2023-09-08T13:41:19;10.40;;;7.20;;
1382;SDS011;685;47.196;11.880;2023-09-08T13:43:47;7.53;;;6.80;;
1382;SDS011;685;47.196;11.880;2023-09-08T13:46:14;7.70;;;6.90;;
1382;SDS011;685;47.196;11.880;2023-09-08T13:48:41;8.10;;;7.30;;
1382;SDS011;685;47.196;11.880;2023-09-08T13:51:08;7.20;;;6.57;;
1382;SDS011;685;47.196;11.880;2023-09-08T13:53:35;6.70;;;6.10;;
1382;SDS011;685;47.196;11.880;2023-09-08T13:56:04;8.17;;;7.50;;
1382;SDS011;685;47.196;11.880;2023-09-08T13:58:31;8.30;;;7.50;;
1382;SDS011;685;47.196;11.880;2023-09-08T14:00:59;7.50;;;6.77;;
1382;SDS011;685;47.196;11.880;2023-09-08T14:03:26;7.73;;;7.03;;
1382;SDS011;685;47.196;11.880;2023-09-08T14:05:53;6.87;;;6.17;;
1382;SDS011;685;47.196;11.880;2023-09-08T14:08:21;9.13;;;7.40;;
1382;SDS011;685;47.196;11.880;2023-09-08T14:10:49;7.90;;;6.77;;
1382;SDS011;685;47.196;11.880;2023-09-08T14:13:18;8.77;;;7.97;;
1382;SDS011;685;47.196;11.880;2023-09-08T14:15:45;9.23;;;7.13;;
1382;SDS011;685;47.196;11.880;2023-09-08T14:18:12;8.17;;;7.37;;
1382;SDS011;685;47.196;11.880;2023-09-08T14:20:40;8.97;;;8.07;;
1382;SDS011;685;47.196;11.880;2023-09-08T14:23:07;8.10;;;7.33;;
1382;SDS011;685;47.196;11.880;2023-09-08T14:25:34;7.93;;;6.83;;
1382;SDS011;685;47.196;11.880;2023-09-08T14:28:01;7.93;;;7.17;;
1382;SDS011;685;47.196;11.880;2023-09-08T14:30:30;8.10;;;7.37;;
1382;SDS011;685;47.196;11.880;2023-09-08T14:32:57;7.80;;;6.57;;
1382;SDS011;685;47.196;11.880;2023-09-08T14:35:25;8.50;;;7.70;;
1382;SDS011;685;47.196;11.880;2023-09-08T14:37:52;7.37;;;6.67;;
1382;SDS011;685;47.196;11.880;2023-09-08T14:40:21;8.17;;;7.37;;
1382;SDS011;685;47.196;11.880;2023-09-08T14:42:49;8.10;;;6.53;;
1382;SDS011;685;47.196;11.880;2023-09-08T14:45:16;7.83;;;7.13;;
1382;SDS011;685;47.196;11.880;2023-09-08T14:47:44;7.93;;;7.20;;
1382;SDS011;685;47.196;11.880;2023-09-08T14:50:12;8.43;;;7.60;;
1382;SDS011;685;47.196;11.880;2023-09-08T14:52:40;7.83;;;7.13;;
1382;SDS011;685;47.196;11.880;2023-09-08T14:55:08;7.63;;;7.00;;
1382;SDS011;685;47.196;11.880;2023-09-08T14:57:35;8.80;;;8.00;;
1382;SDS011;685;47.196;11.880;2023-09-08T15:00:03;7.90;;;7.10;;
1382;SDS011;685;47.196;11.880;2023-09-08T15:05:15;8.27;;;7.37;;
1382;SDS011;685;47.196;11.880;2023-09-08T15:07:42;8.33;;;7.53;;
1382;SDS011;685;47.196;11.880;2023-09-08T15:10:08;7.67;;;6.97;;
1382;SDS011;685;47.196;11.880;2023-09-08T15:12:36;8.90;;;8.10;;
1382;SDS011;685;47.196;11.880;2023-09-08T15:15:03;8.97;;;8.10;;
1382;SDS011;685;47.196;11.880;2023-09-08T15:17:31;8.17;;;7.37;;
1382;SDS011;685;47.196;11.880;2023-09-08T15:19:58;8.53;;;7.73;;
1382;SDS011;685;47.196;11.880;2023-09-08T15:22:27;7.53;;;6.83;;